createdAt,value
2017-06-18T00:00:49.430Z,7.82
2017-06-18T00:03:17.696Z,7.85
2017-06-18T00:05:45.996Z,7.65
2017-06-18T00:08:14.268Z,7.40
2017-06-18T00:10:43.324Z,7.45
2017-06-18T00:13:11.630Z,6.82
2017-06-18T00:15:39.924Z,7.62
2017-06-18T00:18:08.199Z,8.30
2017-06-18T00:20:36.500Z,8.02
2017-06-18T00:23:04.776Z,8.45
2017-06-18T00:25:33.064Z,7.45
2017-06-18T00:28:01.339Z,7.62
2017-06-18T00:30:29.664Z,7.40
2017-06-18T00:32:58.716Z,7.05
2017-06-18T00:35:27.014Z,8.10
2017-06-18T00:37:55.307Z,7.57
2017-06-18T00:40:23.581Z,8.68
2017-06-18T00:42:51.885Z,7.78
2017-06-18T00:45:20.920Z,7.30
2017-06-18T00:47:49.200Z,8.15
2017-06-18T00:50:17.468Z,7.55
2017-06-18T00:52:45.771Z,6.60
2017-06-18T00:55:14.047Z,8.35
2017-06-18T00:57:42.339Z,7.05
2017-06-18T01:03:10.319Z,6.78
2017-06-18T01:05:38.587Z,7.05
2017-06-18T01:08:06.871Z,6.80
2017-06-18T01:10:35.148Z,6.80
2017-06-18T01:13:03.442Z,6.80
2017-06-18T01:15:32.518Z,7.50
2017-06-18T01:18:00.825Z,7.35
2017-06-18T01:20:29.851Z,7.18
2017-06-18T01:22:58.138Z,8.02
2017-06-18T01:25:26.416Z,7.72
2017-06-18T01:27:54.689Z,7.07
2017-06-18T01:30:22.979Z,6.85
2017-06-18T01:32:51.243Z,6.82
2017-06-18T01:35:19.526Z,6.72
2017-06-18T01:37:47.795Z,6.82
2017-06-18T01:40:16.083Z,7.37
2017-06-18T01:42:44.355Z,7.50
2017-06-18T01:45:12.650Z,7.10
2017-06-18T01:47:40.919Z,6.57
2017-06-18T01:50:09.194Z,6.50
2017-06-18T01:52:37.455Z,7.62
2017-06-18T01:55:05.742Z,6.90
2017-06-18T01:57:34.050Z,6.35
2017-06-18T02:00:02.331Z,6.28
2017-06-18T02:02:30.595Z,5.80
2017-06-18T02:04:58.859Z,6.32
2017-06-18T02:07:27.139Z,7.55
2017-06-18T02:09:55.413Z,6.30
2017-06-18T02:12:23.688Z,6.70
2017-06-18T02:14:51.964Z,6.53
2017-06-18T02:17:20.246Z,6.87
2017-06-18T02:19:48.520Z,6.00
2017-06-18T02:22:16.800Z,7.37
2017-06-18T02:24:45.054Z,7.18
2017-06-18T02:27:13.342Z,7.40
2017-06-18T02:29:41.612Z,7.37
2017-06-18T02:32:09.890Z,6.62
2017-06-18T02:34:38.167Z,7.10
2017-06-18T02:37:06.451Z,7.45
2017-06-18T02:39:34.731Z,7.20
2017-06-18T02:42:03.043Z,7.97
2017-06-18T02:44:31.311Z,7.55
2017-06-18T02:46:59.589Z,7.30
2017-06-18T02:49:27.886Z,6.40
2017-06-18T02:51:56.147Z,8.10
2017-06-18T02:54:24.426Z,6.97
2017-06-18T02:56:52.701Z,7.72
2017-06-18T02:59:20.994Z,7.68
2017-06-18T03:01:49.255Z,8.10
2017-06-18T03:04:17.546Z,7.85
2017-06-18T03:06:46.574Z,7.12
2017-06-18T03:09:14.882Z,7.25
2017-06-18T03:11:43.132Z,7.22
2017-06-18T03:14:11.419Z,7.65
2017-06-18T03:16:39.694Z,7.60
2017-06-18T03:19:07.979Z,7.15
2017-06-18T03:21:41.848Z,7.57
2017-06-18T03:24:10.894Z,6.97
2017-06-18T03:26:39.167Z,6.53
2017-06-18T03:29:07.471Z,7.10
2017-06-18T03:31:35.751Z,7.32
2017-06-18T03:34:04.094Z,7.68
2017-06-18T03:36:32.382Z,8.02
2017-06-18T03:39:00.652Z,6.80
2017-06-18T03:41:28.931Z,7.57
2017-06-18T03:43:57.211Z,7.07
2017-06-18T03:46:25.504Z,7.35
2017-06-18T03:48:53.779Z,7.40
2017-06-18T03:51:22.064Z,7.12
2017-06-18T03:53:50.339Z,6.72
2017-06-18T03:56:18.618Z,8.40
2017-06-18T03:58:46.891Z,7.82
2017-06-18T04:01:15.170Z,6.55
2017-06-18T04:03:43.444Z,6.95
2017-06-18T04:06:11.719Z,6.57
2017-06-18T04:08:39.991Z,6.62
2017-06-18T04:11:08.283Z,7.10
2017-06-18T04:13:36.556Z,6.32
2017-06-18T04:16:04.863Z,6.70
2017-06-18T04:18:33.914Z,7.10
2017-06-18T04:21:02.193Z,8.52
2017-06-18T04:23:30.476Z,7.65
2017-06-18T04:25:58.744Z,7.53
2017-06-18T04:28:27.022Z,7.00
2017-06-18T04:30:55.287Z,7.30
2017-06-18T04:33:23.574Z,7.45
2017-06-18T04:35:51.840Z,7.65
2017-06-18T04:38:20.128Z,7.87
2017-06-18T04:40:48.392Z,7.75
2017-06-18T04:43:16.670Z,8.27
2017-06-18T04:45:44.963Z,8.27
2017-06-18T04:48:13.306Z,7.95
2017-06-18T04:50:41.572Z,8.10
2017-06-18T04:53:09.841Z,7.97
2017-06-18T04:55:38.135Z,8.88
2017-06-18T04:58:06.407Z,8.18
2017-06-18T05:00:34.699Z,7.97
2017-06-18T05:03:02.966Z,8.35
2017-06-18T05:05:31.262Z,8.32
2017-06-18T05:07:59.537Z,9.85
2017-06-18T05:10:27.826Z,9.45
2017-06-18T05:12:56.090Z,9.02
2017-06-18T05:15:24.395Z,8.77
2017-06-18T05:17:52.675Z,8.55
2017-06-18T05:20:21.056Z,9.57
2017-06-18T05:22:49.740Z,9.02
2017-06-18T05:25:21.939Z,10.77
2017-06-18T05:27:50.896Z,9.88
2017-06-18T05:30:19.588Z,9.30
2017-06-18T05:32:48.367Z,10.38
2017-06-18T05:35:16.841Z,9.73
2017-06-18T05:37:45.898Z,10.05
2017-06-18T05:40:15.269Z,9.23
2017-06-18T05:42:43.964Z,10.00
2017-06-18T05:45:12.644Z,10.00
2017-06-18T05:47:41.643Z,9.55
2017-06-18T05:50:10.651Z,10.57
2017-06-18T05:52:39.427Z,9.60
2017-06-18T05:55:08.237Z,9.93
2017-06-18T05:57:38.746Z,10.20
2017-06-18T06:00:07.054Z,9.10
2017-06-18T06:02:35.363Z,8.52
2017-06-18T06:05:03.687Z,7.20
2017-06-18T06:07:31.950Z,7.45
2017-06-18T06:10:00.274Z,7.28
2017-06-18T06:12:28.548Z,7.28
2017-06-18T06:14:56.834Z,6.78
2017-06-18T06:17:25.106Z,6.70
2017-06-18T06:19:53.387Z,6.40
2017-06-18T06:22:21.667Z,7.00
2017-06-18T06:24:49.956Z,6.47
2017-06-18T06:27:18.219Z,7.20
2017-06-18T06:29:46.524Z,7.55
2017-06-18T06:32:14.808Z,6.90
2017-06-18T06:34:43.091Z,6.40
2017-06-18T06:37:11.367Z,6.65
2017-06-18T06:39:39.666Z,6.50
2017-06-18T06:42:08.711Z,7.35
2017-06-18T06:44:36.991Z,6.18
2017-06-18T06:47:05.282Z,5.12
2017-06-18T06:49:33.541Z,6.40
2017-06-18T06:52:01.829Z,5.72
2017-06-18T06:54:30.096Z,6.18
2017-06-18T06:56:58.367Z,6.15
2017-06-18T06:59:26.638Z,6.78
2017-06-18T07:01:54.928Z,6.45
2017-06-18T07:04:23.187Z,5.60
2017-06-18T07:06:51.472Z,6.07
2017-06-18T07:09:19.735Z,6.78
2017-06-18T07:11:48.019Z,6.25
2017-06-18T07:14:16.279Z,5.50
2017-06-18T07:16:44.558Z,4.65
2017-06-18T07:19:12.827Z,3.97
2017-06-18T07:21:41.096Z,4.53
2017-06-18T07:24:09.380Z,3.85
2017-06-18T07:26:37.656Z,4.37
2017-06-18T07:29:05.934Z,4.32
2017-06-18T07:31:34.207Z,4.78
2017-06-18T07:34:02.491Z,3.53
2017-06-18T07:36:30.760Z,4.00
2017-06-18T07:38:59.863Z,3.53
2017-06-18T07:41:28.119Z,4.28
2017-06-18T07:43:56.399Z,3.67
2017-06-18T07:46:25.433Z,3.90
2017-06-18T07:48:53.722Z,3.53
2017-06-18T07:51:21.998Z,3.72
2017-06-18T07:53:50.294Z,3.58
2017-06-18T07:56:18.567Z,4.05
2017-06-18T07:58:46.852Z,3.60
2017-06-18T08:01:15.130Z,3.50
2017-06-18T08:03:43.399Z,3.50
2017-06-18T08:06:11.682Z,3.90
2017-06-18T08:08:39.943Z,4.72
2017-06-18T08:11:08.224Z,3.70
2017-06-18T08:13:36.493Z,3.05
2017-06-18T08:16:04.775Z,3.28
2017-06-18T08:18:33.047Z,3.87
2017-06-18T08:21:01.326Z,3.17
2017-06-18T08:23:29.586Z,3.03
2017-06-18T08:25:57.867Z,3.60
2017-06-18T08:28:26.127Z,3.65
2017-06-18T08:30:54.432Z,3.10
2017-06-18T08:33:22.700Z,3.00
2017-06-18T08:35:50.961Z,3.40
2017-06-18T08:38:19.244Z,3.08
2017-06-18T08:40:47.503Z,3.17
2017-06-18T08:43:15.788Z,2.97
2017-06-18T08:45:44.075Z,3.20
2017-06-18T08:48:12.358Z,2.78
2017-06-18T08:50:40.631Z,2.85
2017-06-18T08:53:08.923Z,3.00
2017-06-18T08:55:37.193Z,2.90
2017-06-18T08:58:05.483Z,2.70
2017-06-18T09:00:33.751Z,2.87
2017-06-18T09:03:02.045Z,2.55
2017-06-18T09:05:30.346Z,2.65
2017-06-18T09:07:58.627Z,3.10
2017-06-18T09:10:26.913Z,3.28
2017-06-18T09:12:55.983Z,2.85
2017-06-18T09:15:24.255Z,2.97
2017-06-18T09:17:52.515Z,3.05
2017-06-18T09:20:20.799Z,3.78
2017-06-18T09:22:49.072Z,2.90
2017-06-18T09:25:17.355Z,3.30
2017-06-18T09:27:45.627Z,2.78
2017-06-18T09:30:13.914Z,2.70
2017-06-18T09:32:42.175Z,3.40
2017-06-18T09:35:10.467Z,3.20
2017-06-18T09:37:38.730Z,3.40
2017-06-18T09:40:07.032Z,2.60
2017-06-18T09:42:35.382Z,3.05
2017-06-18T09:45:03.662Z,2.95
2017-06-18T09:47:31.923Z,2.75
2017-06-18T09:50:00.222Z,3.33
2017-06-18T09:52:28.486Z,3.00
2017-06-18T09:54:56.884Z,2.40
2017-06-18T09:57:25.171Z,3.40
2017-06-18T09:59:53.443Z,3.10
2017-06-18T10:02:21.756Z,2.70
2017-06-18T10:04:50.024Z,2.80
2017-06-18T10:07:18.316Z,2.37
2017-06-18T10:09:46.591Z,2.78
2017-06-18T10:12:14.883Z,2.95
2017-06-18T10:14:43.156Z,3.25
2017-06-18T10:17:11.448Z,2.65
2017-06-18T10:19:39.715Z,2.60
2017-06-18T10:22:14.503Z,2.95
2017-06-18T10:24:42.766Z,2.60
2017-06-18T10:27:11.055Z,2.60
2017-06-18T10:29:39.332Z,2.45
2017-06-18T10:32:07.643Z,2.75
2017-06-18T10:34:35.958Z,3.30
2017-06-18T10:37:04.231Z,3.15
2017-06-18T10:39:32.510Z,3.20
2017-06-18T10:42:00.774Z,3.20
2017-06-18T10:44:29.077Z,3.28
2017-06-18T10:46:57.454Z,2.95
2017-06-18T10:49:25.743Z,3.45
2017-06-18T10:51:54.014Z,2.83
2017-06-18T10:54:22.324Z,2.85
2017-06-18T10:56:50.575Z,3.08
2017-06-18T10:59:18.870Z,3.17
2017-06-18T11:01:47.138Z,3.10
2017-06-18T11:04:15.442Z,3.00
2017-06-18T11:06:44.484Z,3.30
2017-06-18T11:09:12.759Z,3.00
2017-06-18T11:11:41.039Z,3.03
2017-06-18T11:14:09.310Z,2.40
2017-06-18T11:16:37.595Z,2.90
2017-06-18T11:19:05.870Z,2.80
2017-06-18T11:21:34.152Z,2.92
2017-06-18T11:24:02.422Z,3.10
2017-06-18T11:26:30.756Z,2.65
2017-06-18T11:28:59.791Z,2.85
2017-06-18T11:31:28.075Z,2.65
2017-06-18T11:33:56.487Z,2.90
2017-06-18T11:36:25.345Z,2.85
2017-06-18T11:38:53.619Z,2.58
2017-06-18T11:41:21.926Z,3.30
2017-06-18T11:43:50.201Z,2.55
2017-06-18T11:46:18.479Z,3.15
2017-06-18T11:48:46.763Z,2.50
2017-06-18T11:51:15.032Z,2.80
2017-06-18T11:53:43.331Z,2.85
2017-06-18T11:56:12.362Z,2.80
2017-06-18T11:58:40.642Z,2.50
2017-06-18T12:01:08.927Z,2.62
2017-06-18T12:03:37.210Z,2.67
2017-06-18T12:06:05.495Z,2.45
2017-06-18T12:08:33.786Z,3.00
2017-06-18T12:11:02.072Z,2.60
2017-06-18T12:13:30.372Z,3.08
2017-06-18T12:15:59.394Z,2.90
2017-06-18T12:18:27.690Z,2.62
2017-06-18T12:20:55.964Z,2.70
2017-06-18T12:23:24.263Z,2.35
2017-06-18T12:25:52.543Z,2.90
2017-06-18T12:28:20.815Z,2.75
2017-06-18T12:30:49.108Z,2.35
2017-06-18T12:33:17.395Z,2.53
2017-06-18T12:35:45.679Z,2.33
2017-06-18T12:38:13.955Z,2.85
2017-06-18T12:40:43.010Z,2.70
2017-06-18T12:43:11.282Z,2.35
2017-06-18T12:45:39.562Z,2.60
2017-06-18T12:48:07.834Z,2.25
2017-06-18T12:50:36.119Z,2.70
2017-06-18T12:53:04.424Z,2.50
2017-06-18T12:55:32.711Z,2.25
2017-06-18T12:58:01.751Z,2.10
2017-06-18T13:00:30.043Z,2.03
2017-06-18T13:02:58.315Z,2.25
2017-06-18T13:05:26.594Z,2.08
2017-06-18T13:07:54.884Z,2.00
2017-06-18T13:10:23.158Z,1.90
2017-06-18T13:12:51.443Z,2.28
2017-06-18T13:15:19.706Z,1.90
2017-06-18T13:17:48.012Z,2.00
2017-06-18T13:20:16.297Z,1.98
2017-06-18T13:22:45.359Z,2.17
2017-06-18T13:25:13.634Z,2.00
2017-06-18T13:27:41.958Z,2.50
2017-06-18T13:30:11.118Z,1.95
2017-06-18T13:32:39.415Z,2.65
2017-06-18T13:35:07.684Z,2.30
2017-06-18T13:37:35.995Z,2.35
2017-06-18T13:40:04.270Z,2.10
2017-06-18T13:42:32.539Z,2.40
2017-06-18T13:45:00.836Z,2.70
2017-06-18T13:47:29.107Z,2.03
2017-06-18T13:49:57.390Z,2.05
2017-06-18T13:52:25.667Z,2.42
2017-06-18T13:54:53.962Z,2.40
2017-06-18T13:57:22.248Z,2.08
2017-06-18T13:59:50.533Z,2.10
2017-06-18T14:02:18.803Z,2.15
2017-06-18T14:04:47.097Z,2.30
2017-06-18T14:07:15.350Z,2.15
2017-06-18T14:09:43.636Z,2.22
2017-06-18T14:12:11.903Z,2.50
2017-06-18T14:14:40.187Z,2.75
2017-06-18T14:17:08.464Z,2.30
2017-06-18T14:19:36.747Z,2.53
2017-06-18T14:22:05.034Z,2.05
2017-06-18T14:24:33.305Z,2.42
2017-06-18T14:27:01.586Z,2.33
2017-06-18T14:29:29.863Z,2.40
2017-06-18T14:31:58.208Z,2.40
2017-06-18T14:34:26.486Z,1.90
2017-06-18T14:36:54.786Z,2.10
2017-06-18T14:39:23.061Z,2.22
2017-06-18T14:41:51.348Z,2.50
2017-06-18T14:44:19.624Z,2.03
2017-06-18T14:46:47.911Z,2.10
2017-06-18T14:49:16.174Z,2.20
2017-06-18T14:51:44.468Z,2.95
2017-06-18T14:54:12.730Z,2.10
2017-06-18T14:56:41.024Z,2.10
2017-06-18T14:59:09.297Z,2.30
2017-06-18T15:01:37.613Z,2.40
2017-06-18T15:04:05.902Z,2.10
2017-06-18T15:06:34.193Z,2.20
2017-06-18T15:09:02.511Z,2.45
2017-06-18T15:11:30.790Z,2.58
2017-06-18T15:13:59.071Z,2.20
2017-06-18T15:16:27.349Z,2.00
2017-06-18T15:18:55.685Z,2.20
2017-06-18T15:21:23.950Z,2.42
2017-06-18T15:23:52.238Z,1.90
2017-06-18T15:26:20.562Z,2.03
2017-06-18T15:28:48.856Z,2.67
2017-06-18T15:31:17.131Z,2.47
2017-06-18T15:33:46.191Z,2.35
2017-06-18T15:36:14.464Z,2.40
2017-06-18T15:38:42.754Z,2.17
2017-06-18T15:41:11.032Z,2.35
2017-06-18T15:43:39.355Z,2.50
2017-06-18T15:46:07.637Z,1.83
2017-06-18T15:48:35.919Z,2.20
2017-06-18T15:51:04.202Z,2.67
2017-06-18T15:53:32.478Z,2.70
2017-06-18T15:56:00.771Z,2.60
2017-06-18T15:58:29.035Z,2.30
2017-06-18T16:00:57.326Z,2.12
2017-06-18T16:03:25.603Z,3.85
2017-06-18T16:05:53.895Z,4.65
2017-06-18T16:08:22.162Z,4.47
2017-06-18T16:10:50.457Z,2.87
2017-06-18T16:13:18.732Z,2.50
2017-06-18T16:15:47.019Z,3.90
2017-06-18T16:18:15.295Z,2.65
2017-06-18T16:20:43.582Z,2.45
2017-06-18T16:23:11.858Z,2.17
2017-06-18T16:25:40.943Z,2.45
2017-06-18T16:28:09.248Z,2.72
2017-06-18T16:30:38.270Z,2.45
2017-06-18T16:33:06.626Z,2.60
2017-06-18T16:35:35.662Z,2.22
2017-06-18T16:38:03.956Z,2.28
2017-06-18T16:40:32.232Z,2.28
2017-06-18T16:43:00.521Z,2.00
2017-06-18T16:45:28.818Z,2.05
2017-06-18T16:47:57.116Z,2.60
2017-06-18T16:50:25.404Z,2.30
2017-06-18T16:52:53.678Z,2.42
2017-06-18T16:55:21.963Z,2.50
2017-06-18T16:57:50.259Z,1.90
2017-06-18T17:00:18.538Z,2.20
2017-06-18T17:02:46.815Z,2.20
2017-06-18T17:05:15.099Z,2.70
2017-06-18T17:07:43.371Z,2.60
2017-06-18T17:10:11.660Z,2.40
2017-06-18T17:12:39.935Z,2.40
2017-06-18T17:15:08.237Z,2.20
2017-06-18T17:17:36.507Z,1.87
2017-06-18T17:20:05.085Z,2.10
2017-06-18T17:22:33.351Z,2.15
2017-06-18T17:25:01.731Z,2.35
2017-06-18T17:27:29.994Z,2.40
2017-06-18T17:29:58.283Z,2.30
2017-06-18T17:32:26.551Z,2.60
2017-06-18T17:34:54.843Z,2.53
2017-06-18T17:37:23.171Z,2.40
2017-06-18T17:39:51.452Z,2.50
2017-06-18T17:42:19.722Z,2.55
2017-06-18T17:44:48.031Z,3.00
2017-06-18T17:47:16.302Z,2.10
2017-06-18T17:49:44.659Z,2.20
2017-06-18T17:52:12.944Z,2.00
2017-06-18T17:54:41.246Z,2.80
2017-06-18T17:57:09.516Z,2.03
2017-06-18T17:59:37.794Z,2.80
2017-06-18T18:02:06.093Z,2.55
2017-06-18T18:04:34.394Z,2.70
2017-06-18T18:07:03.465Z,2.67
2017-06-18T18:09:31.739Z,2.53
2017-06-18T18:12:00.027Z,2.35
2017-06-18T18:14:28.339Z,2.50
2017-06-18T18:16:56.638Z,2.17
2017-06-18T18:19:24.911Z,2.50
2017-06-18T18:21:53.242Z,2.85
2017-06-18T18:24:21.494Z,2.40
2017-06-18T18:26:49.766Z,2.30
2017-06-18T18:29:18.044Z,2.50
2017-06-18T18:31:46.312Z,2.10
2017-06-18T18:34:14.601Z,2.80
2017-06-18T18:36:42.876Z,2.12
2017-06-18T18:39:11.195Z,2.75
2017-06-18T18:41:39.451Z,2.55
2017-06-18T18:44:07.734Z,2.30
2017-06-18T18:46:35.995Z,2.30
2017-06-18T18:49:04.272Z,2.70
2017-06-18T18:51:32.543Z,2.55
2017-06-18T18:54:00.828Z,2.67
2017-06-18T18:56:29.095Z,2.55
2017-06-18T18:58:58.845Z,2.40
2017-06-18T19:01:27.102Z,2.60
2017-06-18T19:03:55.375Z,3.00
2017-06-18T19:06:23.686Z,3.15
2017-06-18T19:08:51.963Z,2.37
2017-06-18T19:11:20.251Z,2.70
2017-06-18T19:14:24.947Z,2.90
2017-06-18T19:16:53.224Z,2.85
2017-06-18T19:19:21.486Z,2.92
2017-06-18T19:21:49.774Z,3.35
2017-06-18T19:24:18.063Z,2.75
2017-06-18T19:26:47.119Z,2.70
2017-06-18T19:29:15.392Z,2.78
2017-06-18T19:31:43.755Z,2.92
2017-06-18T19:34:12.026Z,2.72
2017-06-18T19:36:40.311Z,2.50
2017-06-18T19:39:09.604Z,3.00
2017-06-18T19:41:38.563Z,2.72
2017-06-18T19:44:07.604Z,2.92
2017-06-18T19:46:35.909Z,2.87
2017-06-18T19:49:04.195Z,3.00
2017-06-18T19:51:32.468Z,3.35
2017-06-18T19:54:00.864Z,2.85
2017-06-18T19:56:29.124Z,2.80
2017-06-18T19:58:57.436Z,2.70
2017-06-18T20:01:25.705Z,3.03
2017-06-18T20:03:54.765Z,3.20
2017-06-18T20:06:23.047Z,2.95
2017-06-18T20:08:51.360Z,2.55
2017-06-18T20:11:20.403Z,3.85
2017-06-18T20:13:48.695Z,3.30
2017-06-18T20:16:16.979Z,2.90
2017-06-18T20:18:45.282Z,3.25
2017-06-18T20:21:14.323Z,3.17
2017-06-18T20:23:42.651Z,3.10
2017-06-18T20:26:10.916Z,2.95
2017-06-18T20:28:39.197Z,3.50
2017-06-18T20:31:08.334Z,2.90
2017-06-18T20:33:36.619Z,3.17
2017-06-18T20:36:04.919Z,3.30
2017-06-18T20:38:33.196Z,3.45
2017-06-18T20:41:01.492Z,3.72
2017-06-18T20:43:29.759Z,3.65
2017-06-18T20:45:58.049Z,3.20
2017-06-18T20:48:26.342Z,3.35
2017-06-18T20:50:54.632Z,3.00
2017-06-18T20:53:22.895Z,3.15
2017-06-18T20:55:51.185Z,3.40
2017-06-18T20:58:19.455Z,3.45
2017-06-18T21:00:48.509Z,3.80
2017-06-18T21:03:16.782Z,3.65
2017-06-18T21:05:45.072Z,3.08
2017-06-18T21:08:13.344Z,3.72
2017-06-18T21:10:41.668Z,4.60
2017-06-18T21:13:10.707Z,3.90
2017-06-18T21:15:38.980Z,3.40
2017-06-18T21:18:07.275Z,3.22
2017-06-18T21:20:35.554Z,3.50
2017-06-18T21:23:03.857Z,3.67
2017-06-18T21:25:32.119Z,3.78
2017-06-18T21:28:00.419Z,3.60
2017-06-18T21:30:28.702Z,3.10
2017-06-18T21:32:56.992Z,3.62
2017-06-18T21:35:25.261Z,3.22
2017-06-18T21:37:53.551Z,3.50
2017-06-18T21:40:21.823Z,5.53
2017-06-18T21:42:50.231Z,4.20
2017-06-18T21:45:18.503Z,3.65
2017-06-18T21:47:46.820Z,4.12
2017-06-18T21:50:15.092Z,3.15
2017-06-18T21:52:43.380Z,3.60
2017-06-18T21:55:11.676Z,3.40
2017-06-18T21:57:40.703Z,3.08
2017-06-18T22:00:08.999Z,2.97
2017-06-18T22:02:37.276Z,3.12
2017-06-18T22:05:05.568Z,3.37
2017-06-18T22:07:33.844Z,3.00
2017-06-18T22:10:02.133Z,3.10
2017-06-18T22:12:30.404Z,3.20
2017-06-18T22:14:58.695Z,3.58
2017-06-18T22:17:27.736Z,3.10
2017-06-18T22:19:56.039Z,3.67
2017-06-18T22:22:24.311Z,3.40
2017-06-18T22:24:52.600Z,2.80
2017-06-18T22:27:20.867Z,3.37
2017-06-18T22:29:49.152Z,2.90
2017-06-18T22:32:17.424Z,3.12
2017-06-18T22:34:45.730Z,3.20
2017-06-18T22:37:13.999Z,3.70
2017-06-18T22:39:42.295Z,3.00
2017-06-18T22:42:11.335Z,3.83
2017-06-18T22:44:39.617Z,3.42
2017-06-18T22:47:07.908Z,3.37
2017-06-18T22:49:36.178Z,3.20
2017-06-18T22:52:04.499Z,3.10
2017-06-18T22:54:33.551Z,3.70
2017-06-18T22:57:01.840Z,2.83
2017-06-18T22:59:30.119Z,2.67
2017-06-18T23:01:58.405Z,3.05
2017-06-18T23:04:26.699Z,3.35
2017-06-18T23:06:54.994Z,3.50
2017-06-18T23:09:23.267Z,3.40
2017-06-18T23:11:51.573Z,3.12
2017-06-18T23:14:19.853Z,3.20
2017-06-18T23:16:48.177Z,3.70
2017-06-18T23:19:16.457Z,3.80
2017-06-18T23:21:44.728Z,3.55
2017-06-18T23:24:13.023Z,3.37
2017-06-18T23:26:42.067Z,3.90
2017-06-18T23:29:10.363Z,3.62
2017-06-18T23:31:38.656Z,3.28
2017-06-18T23:34:06.939Z,3.55
2017-06-18T23:36:36.000Z,4.35
2017-06-18T23:39:04.303Z,3.80
2017-06-18T23:41:32.573Z,3.78
2017-06-18T23:44:00.888Z,3.75
2017-06-18T23:46:29.184Z,3.60
2017-06-18T23:48:57.488Z,3.20
2017-06-18T23:51:25.761Z,3.50
2017-06-18T23:53:54.047Z,3.78
2017-06-18T23:56:22.331Z,3.70
2017-06-18T23:58:50.605Z,4.35
